< Typhoon 202011 2020 Season Typhoon 202013 >
Typhoon 202012 (DOLPHIN)
General InformationTrack Information on Google MapsDetailed Wind InformationForecast History on Google MapsAccess Analytics MapList of All Images || NewsDisaster Info.WeblogTrackbackTyphoon FrontTwiphoonTyphoon Now!Typhoon ImaginationJMA Disaster Info. XMLResourceGoogle EarthGE AnimationAtom FeedGeoJSON
Detalied Best Track (Time Zone = UTC)
Year Month Day Hour Lat. Long. Pressure (hPa) Wind (kt) Class Image Chart
2020 9 19 12 21.6 135.0 1010 0 2 Image Chart
2020 9 19 18 22.3 134.5 1008 0 2 Image Chart
2020 9 20 00 22.9 134.2 1008 0 2 Image Chart
2020 9 20 06 23.6 134.0 1006 0 2 Image Chart
2020 9 20 12 24.0 134.3 1004 0 2 Image Chart
2020 9 20 18 24.2 134.7 1002 0 2 Image Chart
2020 9 21 00 24.9 134.8 996 40 3 Image Chart
2020 9 21 06 25.3 135.0 996 40 3 Image Chart
2020 9 21 12 25.7 135.0 996 40 3 Image Chart
2020 9 21 18 26.1 135.2 992 45 3 Image Chart
2020 9 22 00 26.9 135.3 985 50 4 Image Chart
2020 9 22 06 28.1 135.8 975 60 4 Image Chart
2020 9 22 12 29.3 136.3 975 60 4 Image Chart
2020 9 22 18 30.1 137.0 975 60 4 Image Chart
2020 9 23 00 31.2 137.9 975 60 4 Image Chart
2020 9 23 06 32.1 139.3 980 55 4 Image Chart
2020 9 23 09 32.7 140.1 985 50 4 Image Chart
2020 9 23 12 32.9 140.8 985 50 4 Image Chart
2020 9 23 15 32.9 141.1 985 50 4 Image Chart
2020 9 23 18 32.9 141.3 985 50 4 Image Chart
2020 9 23 21 32.9 141.5 985 50 4 Image Chart
2020 9 24 00 32.9 141.8 990 45 3 Image Chart
2020 9 24 03 32.7 142.0 992 45 3 Image Chart
2020 9 24 06 32.7 142.4 992 0 6 Image Chart
2020 9 24 12 33.2 142.5 996 0 6 Image Chart
2020 9 24 18 33.7 142.5 996 0 6 Image Chart
2020 9 25 00 34.0 141.7 1000 0 6 Image Chart
2020 9 25 06 35.5 142.1 1000 0 6 Image Chart
2020 9 25 12 37.2 142.8 1000 0 6 Image Chart
2020 9 25 18 38.9 144.0 996 0 6 Image Chart
2020 9 26 00 40.2 145.4 998 0 6 Image Chart
2020 9 26 06 40.9 146.0 1004 0 6 Image Chart
2020 9 26 12 41.6 146.8 1004 0 6 Image Chart
2020 9 26 18 42.0 147.1 1004 0 6 Image Chart
2020 9 27 00 42.7 147.4 1000 0 6 Image Chart
2020 9 27 06 43.5 147.9 1000 0 6 Image Chart
2020 9 27 12 44.6 148.4 998 0 6 Image Chart
2020 9 27 18 45.5 149.7 994 0 6 Image Chart
2020 9 28 00 47.3 151.7 990 0 6 Image Chart
2020 9 28 06 48.8 152.9 986 0 6 Image Chart
2020 9 28 12 49.5 154.1 986 0 6 Image Chart
2020 9 28 18 50.1 157.9 990 0 6 Image Chart
2020 9 29 00 50.7 161.9 996 0 6 Image Chart
2020 9 29 06 50.6 165.8 998 0 6 Image Chart
2020 9 29 12 50.2 167.5 1004 0 6 Image Chart
2020 9 29 18 49.9 168.9 1008 0 6 Image Chart
Japan Meteorological Agency Best Track Data | Correction Date : 2020-12-23
< Typhoon 202011 2020 Season Typhoon 202013 >

Help